Flight Track Log - Related Links

Times and Time Zones

All times are in EDT time to prevent confusion due to time zone crossing. See the SWA718 flight status page for this flight to view local times or setup timezone preferences in your user account.

Time Position Orientation Groundspeed Altitude Reporting Facility
EDT Latitude Longitude Course Direction KTS MPH feet Rate Location/Type
Tue 08:18:00 PM 28.4167 -81.3000 196° South 159 183 500  Level Orlando TRACON
Tue 08:18:48 PM 28.3667 -81.3167 196° South 208 239 2,400 3,000 Climbing Orlando TRACON
Tue 08:19:48 PM 28.3167 -81.3667 221° Southwest 233 268 5,900 2,800 Climbing Orlando TRACON
Tue 08:20:48 PM 28.2667 -81.4000 210° Southwest 232 267 8,000 2,348 Climbing Orlando TRACON
Tue 08:21:43 PM 28.2500 -81.4667 254° West 239 275 10,400 2,663 Climbing Orlando TRACON
Tue 08:24:04 PM 28.2692 -81.6458 277° West 258 297 16,700 2,627 Climbing Jacksonville Center
Tue 08:25:04 PM 28.2867 -81.7400 282° West 286 329 19,200 2,650 Climbing Jacksonville Center
Tue 08:26:04 PM 28.3042 -81.8386 281° West 308 354 22,000 2,571 Climbing Jacksonville Center
Tue 08:27:03 PM 28.3239 -81.9400 282° West 320 368 24,300 2,000 Climbing Jacksonville Center
Tue 08:28:04 PM 28.3411 -82.0458 280° West 331 381 26,000 1,041 Climbing Jacksonville Center
Tue 08:29:04 PM 28.4292 -82.0994 332° Northwest 312 359 26,400 756 Climbing Jacksonville Center
Tue 08:30:03 PM 28.5503 -82.1150 354° North 360 414 27,500 1,462 Climbing Jacksonville Center
Tue 08:31:03 PM 28.6736 -82.1542 344° North 407 468 29,300 2,000 Climbing Jacksonville Center
Tue 08:32:03 PM 28.7950 -82.1961 343° North 438 504 31,500 2,250 Climbing Jacksonville Center
Tue 08:33:03 PM 28.9119 -82.2331 345° North 445 512 33,800 2,132 Climbing Jacksonville Center
Tue 08:34:04 PM 29.0228 -82.2681 345° North 428 493 35,800 1,100 Climbing Jacksonville Center
Tue 08:35:03 PM 29.1336 -82.3078 343° North 417 480 36,000 101 Climbing Jacksonville Center
Tue 08:36:03 PM 29.2592 -82.3450 345° North 417 480 36,000  Level Jacksonville Center
Tue 08:37:03 PM 29.3700 -82.3825 344° North 417 480 36,000 694 Level Jacksonville Center
Tue 08:38:04 PM 29.4828 -82.4203 344° North 417 480 37,400 1,000 Climbing Jacksonville Center
Tue 08:39:03 PM 29.5936 -82.4556 345° North 417 480 38,000 303 Climbing Jacksonville Center
Tue 08:40:03 PM 29.7064 -82.4908 345° North 417 480 38,000  Level Jacksonville Center
Tue 08:41:03 PM 29.8172 -82.5286 344° North 417 480 38,000  Level Jacksonville Center
Tue 08:42:04 PM 29.9300 -82.5667 344° North 417 480 38,000  Level Jacksonville Center
Tue 08:43:03 PM 30.0428 -82.6069 343° North 417 480 38,000  Level Jacksonville Center
Tue 08:44:03 PM 30.1328 -82.6381 343° North 424 488 38,000  Level Jacksonville Center
Tue 08:45:03 PM 30.2706 -82.6833 344° North 424 488 38,000  Level Jacksonville Center
Tue 08:46:04 PM 30.3853 -82.7192 345° North 419 482 38,000  Level Jacksonville Center
Tue 08:47:03 PM 30.4983 -82.7575 344° North 419 482 38,000  Level Jacksonville Center
Tue 08:48:03 PM 30.6006 -82.7961 342° North 419 482 38,000  Level Jacksonville Center
Tue 08:49:04 PM 30.7111 -82.8344 343° North 419 482 38,000  Level Jacksonville Center
Tue 08:50:03 PM 30.8261 -82.8756 343° North 419 482 38,000  Level Jacksonville Center
Tue 08:51:03 PM 30.9367 -82.9144 343° North 419 482 38,000  Level Jacksonville Center
Tue 08:52:55 PM 31.1597 -82.9833 345° North 411 473 38,000  Level Atlanta Center
Tue 08:53:55 PM 31.2728 -83.0233 343° North 419 482 38,000  Level Atlanta Center
Tue 08:54:55 PM 31.3797 -83.0636 342° North 407 468 38,000  Level Atlanta Center
Tue 08:55:55 PM 31.4906 -83.0989 345° North 407 468 38,000  Level Atlanta Center
Tue 08:56:55 PM 31.6036 -83.1392 343° North 407 468 38,000  Level Atlanta Center
Tue 08:57:55 PM 31.7164 -83.1794 343° North 407 468 38,000  Level Atlanta Center
Tue 08:58:55 PM 31.8272 -83.2175 344° North 407 468 38,000  Level Atlanta Center
Tue 08:59:55 PM 31.9297 -83.2508 345° North 417 480 38,000  Level Atlanta Center
Tue 09:00:55 PM 32.0408 -83.2917 343° North 417 480 38,000 -300 Level Atlanta Center
Tue 09:01:55 PM 32.1536 -83.3297 344° North 417 480 37,400 -750 Descending Atlanta Center
Tue 09:02:55 PM 32.2667 -83.3708 343° North 417 480 36,500 -700 Descending Atlanta Center
Tue 09:03:55 PM 32.3775 -83.4092 344° North 417 480 36,000 -250 Descending Atlanta Center
Tue 09:04:55 PM 32.4883 -83.4503 343° North 417 480 36,000  Level Atlanta Center
Tue 09:05:55 PM 32.6011 -83.4889 344° North 417 480 36,000  Level Atlanta Center
Tue 09:06:55 PM 32.7119 -83.5278 344° North 417 480 36,000  Level Atlanta Center
Tue 09:07:55 PM 32.8269 -83.5692 343° North 422 486 36,000  Level Atlanta Center
Tue 09:08:55 PM 32.9419 -83.6081 344° North 422 486 36,000  Level Atlanta Center
Tue 09:09:55 PM 33.0653 -83.6547 342° North 422 486 36,000  Level Atlanta Center
Tue 09:10:55 PM 33.1822 -83.6939 344° North 422 486 36,000  Level Atlanta Center
Tue 09:11:55 PM 33.2825 -83.7306 343° North 422 486 36,000  Level Atlanta Center
Tue 09:12:55 PM 33.3953 -83.7725 343° North 422 486 36,000  Level Atlanta Center
Tue 09:13:55 PM 33.5061 -83.8122 343° North 417 480 36,000  Level Atlanta Center
Tue 09:14:55 PM 33.6189 -83.8517 344° North 417 480 36,000  Level Atlanta Center
Tue 09:15:55 PM 33.7294 -83.8914 343° North 417 480 36,000  Level Atlanta Center
Tue 09:16:55 PM 33.8422 -83.9314 344° North 417 480 36,000  Level Atlanta Center
Tue 09:17:55 PM 33.9508 -83.9711 343° North 417 480 36,000  Level Atlanta Center
Tue 09:18:55 PM 34.0594 -84.0111 343° North 412 474 36,000  Level Atlanta Center
Tue 09:19:55 PM 34.1658 -84.0514 343° North 403 464 36,000  Level Atlanta Center
Tue 09:20:55 PM 34.2764 -84.0917 343° North 403 464 36,000  Level Atlanta Center
Tue 09:21:55 PM 34.3828 -84.1319 343° North 403 464 36,000  Level Atlanta Center
Tue 09:22:55 PM 34.5017 -84.1775 342° North 403 464 36,000  Level Atlanta Center
Tue 09:23:55 PM 34.6122 -84.2156 344° North 403 464 36,000  Level Atlanta Center
Tue 09:24:55 PM 34.7186 -84.2586 342° North 403 464 36,000  Level Atlanta Center
Tue 09:25:55 PM 34.8292 -84.2994 343° North 403 464 36,000  Level Atlanta Center
Tue 09:26:55 PM 34.9167 -84.3275 345° North 403 464 36,000  Level Atlanta Center
Tue 09:27:55 PM 35.0314 -84.3786 340° North 398 458 36,000  Level Atlanta Center
Tue 09:28:55 PM 35.1419 -84.4172 344° North 404 465 36,000  Level Atlanta Center
Tue 09:29:55 PM 35.2503 -84.4583 343° North 404 465 36,000  Level Atlanta Center
Tue 09:30:55 PM 35.3606 -84.4997 343° North 404 465 36,000  Level Atlanta Center
Tue 09:31:55 PM 35.4711 -84.5411 343° North 404 465 36,000  Level Atlanta Center
Tue 09:32:55 PM 35.5814 -84.5828 343° North 404 465 36,000  Level Atlanta Center
Tue 09:33:55 PM 35.6897 -84.6242 343° North 404 465 36,000  Level Atlanta Center
Tue 09:35:51 PM 35.9108 -84.7064 343° North 413 475 36,000  Level Indianapolis Center
Tue 09:36:52 PM 36.0181 -84.7486 342° North 412 474 36,000  Level Indianapolis Center
Tue 09:37:53 PM 36.1247 -84.7911 342° North 409 471 36,000  Level Indianapolis Center
Tue 09:38:55 PM 36.2342 -84.8336 343° North 412 474 36,000  Level Indianapolis Center
Tue 09:39:56 PM 36.3436 -84.8758 343° North 413 475 36,000  Level Indianapolis Center
Tue 09:40:57 PM 36.4767 -84.9283 342° North 418 481 36,000  Level Indianapolis Center
Tue 09:41:59 PM 36.5886 -84.9711 343° North 421 484 36,000 -98 Level Indianapolis Center
Tue 09:43:00 PM 36.7014 -85.0158 342° North 424 488 35,800 -590 Descending Indianapolis Center
Tue 09:44:01 PM 36.8136 -85.0617 342° North 426 490 34,800 -885 Descending Indianapolis Center
Tue 09:45:02 PM 36.9267 -85.1053 343° North 425 489 34,000 -390 Descending Indianapolis Center
Tue 09:46:04 PM 37.0511 -85.1533 343° North 426 490 34,000  Level Indianapolis Center
Tue 09:47:05 PM 37.1656 -85.1994 342° North 429 494 34,000  Level Indianapolis Center
Tue 09:48:06 PM 37.2817 -85.2442 343° North 434 499 34,000  Level Indianapolis Center
Tue 09:49:07 PM 37.4025 -85.2725 349° North 437 503 34,000  Level Indianapolis Center
Tue 09:50:09 PM 37.5231 -85.3017 349° North 438 504 34,000  Level Indianapolis Center
Tue 09:51:10 PM 37.6428 -85.3311 349° North 436 502 34,000  Level Indianapolis Center
Tue 09:52:11 PM 37.7614 -85.3597 349° North 433 498 34,000  Level Indianapolis Center
Tue 09:53:12 PM 37.8786 -85.3867 350° North 440 506 34,000  Level Indianapolis Center
Tue 09:54:14 PM 37.9967 -85.4150 349° North 434 499 34,000  Level Indianapolis Center
Tue 09:55:15 PM 38.1147 -85.4456 348° North 433 498 34,000  Level Indianapolis Center
Tue 09:56:16 PM 38.2344 -85.4733 350° North 435 501 34,000  Level Indianapolis Center
Tue 09:57:17 PM 38.3778 -85.5103 349° North 437 503 34,000  Level Indianapolis Center
Tue 09:58:18 PM 38.4969 -85.5383 350° North 436 502 34,000  Level Indianapolis Center
Tue 09:59:20 PM 38.6158 -85.5686 349° North 435 501 34,000  Level Indianapolis Center
Tue 10:00:21 PM 38.7261 -85.5967 349° North 434 499 34,000 -492 Level Indianapolis Center
Tue 10:01:22 PM 38.8444 -85.6250 349° North 431 496 33,000 -984 Descending Indianapolis Center
Tue 10:02:23 PM 38.9636 -85.6558 349° North 433 498 32,000 -1,033 Descending Indianapolis Center
Tue 10:03:24 PM 39.1050 -85.6914 349° North 441 507 30,900 -984 Descending Indianapolis Center
Tue 10:04:25 PM 39.2261 -85.7219 349° North 440 506 30,000 -443 Descending Indianapolis Center
Tue 10:05:26 PM 39.3478 -85.7531 349° North 444 511 30,000  Level Indianapolis Center
Tue 10:06:28 PM 39.4697 -85.7839 349° North 445 512 30,000  Level Indianapolis Center
Tue 10:07:29 PM 39.5939 -85.8150 349° North 452 520 30,000 -689 Level Indianapolis Center
Tue 10:08:30 PM 39.7186 -85.8478 349° North 457 526 28,600 -1,770 Descending Indianapolis Center
Tue 10:09:31 PM 39.8450 -85.8800 349° North 464 534 26,400 -2,262 Descending Indianapolis Center
Tue 10:10:32 PM 39.9697 -85.9114 349° North 458 527 24,000 -787 Descending Indianapolis Center
Tue 10:12:34 PM 40.2064 -85.9922 345° North 441 507 24,000  Level Indianapolis Center
Tue 10:12:55 PM 40.2631 -86.0206 339° North 443 510 24,000 -723 Level Chicago Center
Tue 10:13:57 PM 40.3758 -86.0783 339° North 435 501 23,000 -585 Descending Chicago Center
Tue 10:14:58 PM 40.4853 -86.1356 338° Northwest 425 489 22,800 -639 Descending Chicago Center
Tue 10:15:59 PM 40.5928 -86.1919 338° Northwest 414 476 21,700 -1,869 Descending Chicago Center
Tue 10:18:01 PM 40.7928 -86.2986 338° Northwest 385 443 17,100 -2,164 Descending Chicago Center
Tue 10:19:02 PM 40.8875 -86.3469 339° North 369 425 15,100 -1,967 Descending Chicago Center
Tue 10:20:03 PM 40.9797 -86.3967 338° Northwest 358 412 13,100 -1,918 Descending Chicago Center
Tue 10:21:04 PM 41.0581 -86.4578 330° Northwest 343 395 11,200 -1,033 Descending Chicago Center
Tue 10:22:05 PM 41.1019 -86.5633 299° West 330 380 11,000 -197 Descending Chicago Center
Tue 10:23:06 PM 41.1606 -86.6539 311° West 327 376 10,800 -492 Descending Chicago Center
Tue 10:24:07 PM 41.2247 -86.7431 314° West 328 377 10,000 -393 Descending Chicago Center
Tue 10:25:08 PM 41.2967 -86.8450 313° West 319 367 10,000  Level Chicago Center
Tue 10:26:09 PM 41.3558 -86.9292 313° West 316 364 10,000 -537 Level Chicago Center
Tue 10:27:11 PM 41.4097 -87.0069 313° West 296 341 8,900 -1,268 Descending Chicago Center
Tue 10:28:12 PM 41.4625 -87.0833 313° West 286 329 7,400 -1,279 Descending Chicago Center
Tue 10:29:13 PM 41.5125 -87.1639 310° West 287 330 6,300 -984 Descending Chicago Center
Tue 10:30:14 PM 41.5506 -87.2511 300° West 278 320 5,400 -984 Descending Chicago Center
Tue 10:31:15 PM 41.5911 -87.3364 302° West 276 318 4,300 -689 Descending Chicago Center
Tue 10:32:16 PM 41.6314 -87.4214 302° West 274 315 4,000 -344 Descending Chicago Center
Tue 10:33:17 PM 41.6792 -87.5231 302° West 272 313 3,600 -689 Descending Chicago Center
Tue 10:34:18 PM 41.7194 -87.6033 304° West 268 308 2,600 -677 Descending Chicago Center
Tue 10:35:21 PM 41.7833 -87.6500 331° Northwest 212 244 2,200 -537 Descending Chicago TRACON
Tue 10:36:21 PM 41.8167 -87.7000 312° West 163 188 1,500 -700 Descending Chicago TRACON

Login

Don't have an account? Register now (free) for customized features, flight alerts, and more!